Time;durP1;ratioP1;P1;durP2;ratioP2;P2;SDS_P1;SDS_P2;PMS_P1;PMS_P2;Temp;Humidity;BMP_temperature;BMP_pressure;BME280_temperature;BME280_humidity;BME280_pressure;Samples;Min_cycle;Max_cycle;Signal;HPM_P1;HPM_P2
2022/01/25 00:10:40;;;;;;;;;77.00;59.00;;;;;-147.59;100.00;57188.72;6304966;22;45445;-80
2022/01/25 00:27:08;;;;;;;;;71.50;53.50;;;;;-147.59;100.00;57188.72;6239944;22;45576;-79
2022/01/25 00:32:13;;;;;;;;;78.75;60.25;;;;;-147.59;100.00;57188.72;6240651;22;45262;-79
2022/01/25 00:34:39;;;;;;;;;84.25;63.00;;;;;-147.59;100.00;57188.72;6239917;22;45539;-80
2022/01/25 00:37:04;;;;;;;;;77.00;60.75;;;;;-147.59;100.00;57188.72;6240658;22;45304;-80
2022/01/25 00:39:30;;;;;;;;;71.50;55.75;;;;;-147.59;100.00;57188.72;6240610;22;45341;-80
2022/01/25 00:41:56;;;;;;;;;73.00;58.75;;;;;-147.59;100.00;57188.72;6240728;22;45534;-80
2022/01/25 00:44:21;;;;;;;;;72.50;57.25;;;;;-147.59;100.00;57188.72;6240631;22;45313;-79
2022/01/25 00:46:48;;;;;;;;;82.75;60.50;;;;;-147.59;100.00;57188.72;6240061;22;45382;-80
2022/01/25 00:49:24;;;;;;;;;78.75;58.50;;;;;-147.59;100.00;57188.72;6240421;22;45335;-80
2022/01/25 00:54:30;;;;;;;;;72.50;56.00;;;;;-147.59;100.00;57188.72;6240593;22;45830;-80
2022/01/25 00:56:57;;;;;;;;;79.00;58.00;;;;;-147.59;100.00;57188.72;6250645;22;45464;-80
2022/01/25 00:59:28;;;;;;;;;81.25;59.00;;;;;-147.59;100.00;57188.72;6305327;22;45475;-80
2022/01/25 01:01:57;;;;;;;;;75.75;59.00;;;;;-147.59;100.00;57188.72;6304917;22;45622;-80
2022/01/25 01:04:23;;;;;;;;;80.75;62.25;;;;;-147.59;100.00;57188.72;6305251;22;46601;-80
2022/01/25 01:06:50;;;;;;;;;83.00;64.50;;;;;-147.59;100.00;57188.72;6305080;22;45300;-80
2022/01/25 01:42:28;;;;;;;;;72.00;54.50;;;;;-147.59;100.00;57188.72;6304946;22;45409;-79
2022/01/25 01:47:37;;;;;;;;;60.75;51.50;;;;;-147.59;100.00;57188.72;6304625;22;45174;-79
2022/01/25 01:50:09;;;;;;;;;73.00;56.50;;;;;-147.59;100.00;57188.72;6304927;22;45311;-79
2022/01/25 01:52:35;;;;;;;;;61.25;45.25;;;;;-147.59;100.00;57188.72;6303142;22;45704;-79
2022/01/25 01:55:00;;;;;;;;;63.50;45.50;;;;;-147.59;100.00;57188.72;6304976;22;45153;-79
2022/01/25 01:57:26;;;;;;;;;66.75;50.75;;;;;-147.59;100.00;57188.72;6304969;22;45340;-80
2022/01/25 01:59:53;;;;;;;;;75.75;59.75;;;;;-147.59;100.00;57188.72;6302735;22;47898;-80
2022/01/25 02:02:20;;;;;;;;;60.75;47.75;;;;;-147.59;100.00;57188.72;6304709;22;45316;-80
2022/01/25 02:04:45;;;;;;;;;68.50;54.25;;;;;-147.59;100.00;57188.72;6304465;22;45260;-80
2022/01/25 02:07:10;;;;;;;;;53.00;43.00;;;;;-147.59;100.00;57188.72;6302859;22;45277;-80
2022/01/25 02:09:36;;;;;;;;;65.00;49.50;;;;;-147.59;100.00;57188.72;6303178;22;47047;-80
2022/01/25 02:12:01;;;;;;;;;64.75;48.75;;;;;-147.59;100.00;57188.72;6302638;22;45336;-80
2022/01/25 02:14:28;;;;;;;;;56.50;46.00;;;;;-147.59;100.00;57188.72;6305251;22;45240;-79
2022/01/25 02:24:48;;;;;;;;;46.67;41.00;;;;;-147.59;100.00;57188.72;6305091;22;45165;-79
2022/01/25 02:27:14;;;;;;;;;43.33;34.67;;;;;-147.59;100.00;57188.72;6304754;22;45458;-79
2022/01/25 02:29:39;;;;;;;;;52.00;45.00;;;;;-147.59;100.00;57188.72;6304662;22;45410;-79
2022/01/25 02:32:07;;;;;;;;;63.25;49.25;;;;;-147.59;100.00;57188.72;6304786;22;45315;-79
2022/01/25 02:34:32;;;;;;;;;56.75;44.50;;;;;-147.59;100.00;57188.72;6305256;22;45324;-79
2022/01/25 02:37:04;;;;;;;;;58.50;45.00;;;;;-147.59;100.00;57188.72;6305285;22;45426;-79
2022/01/25 02:39:30;;;;;;;;;61.00;47.75;;;;;-147.59;100.00;57188.72;6302970;22;47173;-79
2022/01/25 02:41:55;;;;;;;;;56.50;45.00;;;;;-147.59;100.00;57188.72;6303233;22;45310;-79
2022/01/25 02:44:26;;;;;;;;;56.50;45.75;;;;;-147.59;100.00;57188.72;6304180;22;45358;-79
2022/01/25 02:49:33;;;;;;;;;43.67;38.67;;;;;-147.59;100.00;57188.72;6304780;22;45256;-79
2022/01/25 02:52:00;;;;;;;;;60.67;47.67;;;;;-147.59;100.00;57188.72;6304645;22;45272;-79
2022/01/25 02:54:26;;;;;;;;;58.33;41.33;;;;;-147.59;100.00;57188.72;6302687;22;45360;-79
2022/01/25 02:56:52;;;;;;;;;60.33;45.00;;;;;-147.59;100.00;57188.72;6302806;22;45427;-79
2022/01/25 02:59:17;;;;;;;;;56.00;45.75;;;;;-147.59;100.00;57188.72;6303460;22;45227;-79
2022/01/25 03:01:45;;;;;;;;;62.00;46.33;;;;;-147.59;100.00;57188.72;6303958;22;45304;-80
2022/01/25 03:04:12;;;;;;;;;56.67;44.00;;;;;-147.59;100.00;57188.72;6304297;22;45259;-80
2022/01/25 03:06:39;;;;;;;;;55.67;42.67;;;;;-147.59;100.00;57188.72;6304179;22;45439;-80
2022/01/25 03:09:05;;;;;;;;;58.33;44.00;;;;;-147.59;100.00;57188.72;6303328;22;45466;-79
2022/01/25 03:11:31;;;;;;;;;49.67;44.00;;;;;-147.59;100.00;57188.72;6302133;22;45353;-80
2022/01/25 03:14:00;;;;;;;;;51.67;43.00;;;;;-147.59;100.00;57188.72;6304514;22;45454;-79
2022/01/25 03:16:35;;;;;;;;;67.00;47.75;;;;;-147.59;100.00;57188.72;6303348;22;45446;-79
2022/01/25 03:19:04;;;;;;;;;54.50;40.50;;;;;-147.59;100.00;57188.72;6305086;22;46355;-79
2022/01/25 03:23:57;;;;;;;;;46.67;41.00;;;;;-147.59;100.00;57188.72;6303883;22;45367;-80
2022/01/25 03:26:24;;;;;;;;;51.33;41.33;;;;;-147.59;100.00;57188.72;6304705;22;45391;-79
2022/01/25 03:28:50;;;;;;;;;63.00;45.67;;;;;-147.59;100.00;57188.72;6302105;22;47018;-80
2022/01/25 03:31:16;;;;;;;;;48.00;38.33;;;;;-147.59;100.00;57188.72;6303886;22;45390;-80
2022/01/25 03:33:42;;;;;;;;;49.33;40.67;;;;;-147.59;100.00;57188.72;6303906;22;45196;-80
2022/01/25 03:36:08;;;;;;;;;58.00;43.67;;;;;-147.59;100.00;57188.72;6304415;22;45624;-79
2022/01/25 03:38:35;;;;;;;;;63.67;45.00;;;;;-147.59;100.00;57188.72;6302479;22;48148;-80
2022/01/25 03:41:03;;;;;;;;;49.67;40.00;;;;;-147.59;100.00;57188.72;6304264;22;45351;-80
2022/01/25 03:43:28;;;;;;;;;46.33;40.33;;;;;-147.59;100.00;57188.72;6304161;22;45341;-79
2022/01/25 03:46:18;;;;;;;;;57.50;48.00;;;;;-147.59;100.00;57188.72;6302781;22;45553;-80
2022/01/25 03:51:28;;;;;;;;;58.25;46.50;;;;;-147.59;100.00;57188.72;6303812;22;45398;-79
2022/01/25 03:53:54;;;;;;;;;43.25;40.75;;;;;-147.59;100.00;57188.72;6304267;22;45742;-80
2022/01/25 03:56:24;;;;;;;;;52.33;42.00;;;;;-147.59;100.00;57188.72;6302062;22;45383;-79
2022/01/25 03:58:49;;;;;;;;;57.00;43.67;;;;;-147.59;100.00;57188.72;6304013;22;46500;-79
2022/01/25 04:01:16;;;;;;;;;64.33;50.67;;;;;-147.59;100.00;57188.72;6303885;22;45172;-79
2022/01/25 04:03:48;;;;;;;;;59.33;43.67;;;;;-147.59;100.00;57188.72;6304513;22;45315;-79
2022/01/25 04:06:19;;;;;;;;;46.33;41.00;;;;;-147.59;100.00;57188.72;6303820;22;45102;-79
2022/01/25 04:08:44;;;;;;;;;52.00;43.33;;;;;-147.59;100.00;57188.72;6302001;22;46065;-80
2022/01/25 04:11:09;;;;;;;;;61.50;47.25;;;;;-147.59;100.00;57188.72;6303668;22;45355;-79
2022/01/25 04:13:35;;;;;;;;;54.67;41.33;;;;;-147.59;100.00;57188.72;6303937;22;45271;-79
2022/01/25 04:16:08;;;;;;;;;60.33;45.67;;;;;-147.59;100.00;57188.72;6304277;22;45371;-80
2022/01/25 04:18:47;;;;;;;;;50.00;41.00;;;;;-147.59;100.00;57188.72;6302112;22;47509;-80
2022/01/25 04:21:27;;;;;;;;;42.33;41.00;;;;;-147.59;100.00;57188.72;6304194;22;45331;-79
2022/01/25 04:26:36;;;;;;;;;51.33;44.00;;;;;-147.59;100.00;57188.72;6303339;22;45324;-80
2022/01/25 04:29:02;;;;;;;;;55.33;44.00;;;;;-147.59;100.00;57188.72;6305344;22;45784;-79
2022/01/25 04:31:27;;;;;;;;;58.67;47.33;;;;;-147.59;100.00;57188.72;6303027;22;45271;-79
2022/01/25 04:34:24;;;;;;;;;66.25;48.50;;;;;-147.59;100.00;57188.72;6305534;22;45504;-79
2022/01/25 04:50:22;;;;;;;;;50.67;37.33;;;;;-147.59;100.00;57188.72;6305520;22;45268;-80
2022/01/25 04:53:37;;;;;;;;;58.25;46.00;;;;;-147.59;100.00;57188.72;6305324;22;45323;-79
2022/01/25 04:55:44;;;;;;;;;48.00;41.00;;;;;-147.59;100.00;57188.72;6291456;22;45372;-79
2022/01/25 04:58:17;;;;;;;;;49.00;44.67;;;;;-147.59;100.00;57188.72;6305737;22;45271;-79
2022/01/25 05:00:43;;;;;;;;;61.00;49.00;;;;;-147.59;100.00;57188.72;6305065;22;45362;-78
2022/01/25 05:03:12;;;;;;;;;60.00;45.67;;;;;-147.59;100.00;57188.72;6303238;22;45300;-79
2022/01/25 05:05:54;;;;;;;;;51.67;40.67;;;;;-147.59;100.00;57188.72;6305550;22;45270;-78
2022/01/25 05:08:35;;;;;;;;;54.75;44.50;;;;;-147.59;100.00;57188.72;6305391;22;45362;-78
2022/01/25 05:11:07;;;;;;;;;42.67;39.67;;;;;-147.59;100.00;57188.72;6304939;22;45177;-78
2022/01/25 05:19:01;;;;;;;;;60.67;45.33;;;;;-147.59;100.00;57188.72;6305211;22;45391;-78
2022/01/25 05:24:09;;;;;;;;;60.50;47.25;;;;;-147.59;100.00;57188.72;6304454;22;45306;-78
2022/01/25 05:26:35;;;;;;;;;65.00;45.00;;;;;-147.59;100.00;57188.72;6303115;22;45280;-78
2022/01/25 05:29:00;;;;;;;;;60.67;46.00;;;;;-147.59;100.00;57188.72;6305607;22;45286;-78
2022/01/25 05:31:26;;;;;;;;;60.33;44.67;;;;;-147.59;100.00;57188.72;6305122;22;45972;-78
2022/01/25 05:33:51;;;;;;;;;61.33;46.00;;;;;-147.59;100.00;57188.72;6304635;22;45300;-78
2022/01/25 05:36:16;;;;;;;;;57.33;45.00;;;;;-147.59;100.00;57188.72;6305296;22;45351;-78
2022/01/25 05:38:43;;;;;;;;;59.33;45.00;;;;;-147.59;100.00;57188.72;6304252;22;45812;-78
2022/01/25 05:41:09;;;;;;;;;40.33;35.33;;;;;-147.59;100.00;57188.72;6303072;22;47097;-78
2022/01/25 05:46:20;;;;;;;;;57.00;44.33;;;;;-147.59;100.00;57188.72;6305416;22;45447;-78
2022/01/25 05:48:47;;;;;;;;;47.33;38.00;;;;;-147.59;100.00;57188.72;6303085;22;45684;-78
2022/01/25 05:51:13;;;;;;;;;50.00;39.67;;;;;-147.59;100.00;57188.72;6304654;22;46096;-78
2022/01/25 05:53:42;;;;;;;;;49.00;39.33;;;;;-147.59;100.00;57188.72;6304087;22;45476;-78
2022/01/25 05:56:07;;;;;;;;;58.00;42.00;;;;;-147.59;100.00;57188.72;6305700;22;45344;-78
2022/01/25 05:58:33;;;;;;;;;54.33;44.00;;;;;-147.59;100.00;57188.72;6305174;22;45569;-78
2022/01/25 06:00:58;;;;;;;;;64.75;45.00;;;;;-147.59;100.00;57188.72;6304888;22;45199;-78
2022/01/25 06:03:23;;;;;;;;;51.33;40.33;;;;;-147.59;100.00;57188.72;6302631;22;45238;-78
2022/01/25 06:05:49;;;;;;;;;61.25;46.50;;;;;-147.59;100.00;57188.72;6305158;22;45852;-79
2022/01/25 06:08:14;;;;;;;;;51.00;43.33;;;;;-147.59;100.00;57188.72;6305111;22;45236;-78
2022/01/25 06:10:40;;;;;;;;;50.67;43.33;;;;;-147.59;100.00;57188.72;6302621;22;47870;-78
2022/01/25 06:13:06;;;;;;;;;60.33;44.00;;;;;-147.59;100.00;57188.72;6302858;22;45642;-78
2022/01/25 06:15:31;;;;;;;;;56.00;47.33;;;;;-147.59;100.00;57188.72;6304759;22;45236;-79
2022/01/25 06:17:57;;;;;;;;;61.67;41.00;;;;;-147.59;100.00;57188.72;6305240;22;45217;-79
2022/01/25 06:20:23;;;;;;;;;59.67;46.00;;;;;-147.59;100.00;57188.72;6304522;22;45264;-78
2022/01/25 06:22:49;;;;;;;;;60.67;44.00;;;;;-147.59;100.00;57188.72;6304277;22;45416;-78
2022/01/25 06:25:15;;;;;;;;;48.67;43.33;;;;;-147.59;100.00;57188.72;6303575;22;45286;-78
2022/01/25 06:27:42;;;;;;;;;62.67;44.00;;;;;-147.59;100.00;57188.72;6303143;22;45463;-78
2022/01/25 06:30:10;;;;;;;;;60.75;47.00;;;;;-147.59;100.00;57188.72;6302674;22;46342;-79
2022/01/25 06:32:35;;;;;;;;;58.50;45.25;;;;;-147.59;100.00;57188.72;6303154;22;45348;-78
2022/01/25 06:35:02;;;;;;;;;53.75;41.00;;;;;-147.59;100.00;57188.72;6302128;22;45339;-78
2022/01/25 06:37:27;;;;;;;;;70.25;51.00;;;;;-147.59;100.00;57188.72;6304249;22;45325;-79
2022/01/25 06:39:54;;;;;;;;;62.00;47.33;;;;;-147.59;100.00;57188.72;6304626;22;45933;-78
2022/01/25 06:42:20;;;;;;;;;61.75;46.75;;;;;-147.59;100.00;57188.72;6305019;22;45355;-78
2022/01/25 06:44:45;;;;;;;;;66.25;47.25;;;;;-147.59;100.00;57188.72;6303779;22;45288;-78
2022/01/25 06:47:10;;;;;;;;;57.67;44.67;;;;;-147.59;100.00;57188.72;6304472;22;45337;-78
2022/01/25 06:49:36;;;;;;;;;70.00;52.75;;;;;-147.59;100.00;57188.72;6304199;22;46549;-78
2022/01/25 06:52:01;;;;;;;;;62.67;49.67;;;;;-147.59;100.00;57188.72;6304123;22;45314;-77
2022/01/25 06:54:26;;;;;;;;;53.00;45.33;;;;;-147.59;100.00;57188.72;6302428;22;45320;-77
2022/01/25 06:56:52;;;;;;;;;59.00;44.67;;;;;-147.59;100.00;57188.72;6304213;22;45453;-78
2022/01/25 06:59:17;;;;;;;;;58.33;43.33;;;;;-147.59;100.00;57188.72;6303941;22;46430;-78
2022/01/25 07:01:44;;;;;;;;;55.67;47.00;;;;;-147.59;100.00;57188.72;6304629;22;45362;-78
2022/01/25 07:04:09;;;;;;;;;58.67;44.67;;;;;-147.59;100.00;57188.72;6305008;22;45295;-78
2022/01/25 07:06:34;;;;;;;;;62.67;46.67;;;;;-147.59;100.00;57188.72;6303730;22;45420;-78
2022/01/25 07:09:01;;;;;;;;;63.33;46.33;;;;;-147.59;100.00;57188.72;6304502;22;46458;-78
2022/01/25 07:11:28;;;;;;;;;60.33;48.00;;;;;-147.59;100.00;57188.72;6301953;22;45774;-78
2022/01/25 07:13:54;;;;;;;;;67.25;46.25;;;;;-147.59;100.00;57188.72;6302099;22;45318;-78
2022/01/25 07:16:20;;;;;;;;;68.00;45.75;;;;;-147.59;100.00;57188.72;6302068;22;45476;-78
2022/01/25 07:18:45;;;;;;;;;50.00;40.33;;;;;-147.59;100.00;57188.72;6303579;22;45285;-78
2022/01/25 07:21:10;;;;;;;;;52.25;40.75;;;;;-147.59;100.00;57188.72;6303893;22;45366;-78
2022/01/25 07:23:36;;;;;;;;;65.33;46.00;;;;;-147.59;100.00;57188.72;6304209;22;45232;-78
2022/01/25 07:26:01;;;;;;;;;47.33;38.00;;;;;-147.59;100.00;57188.72;6304461;22;45362;-78
2022/01/25 07:28:26;;;;;;;;;53.50;42.25;;;;;-147.59;100.00;57188.72;6303791;22;45358;-78
2022/01/25 07:30:52;;;;;;;;;56.33;41.67;;;;;-147.59;100.00;57188.72;6303963;22;45303;-77
2022/01/25 07:33:20;;;;;;;;;53.67;45.33;;;;;-147.59;100.00;57188.72;6304284;22;45265;-78
2022/01/25 07:35:46;;;;;;;;;63.33;45.67;;;;;-147.59;100.00;57188.72;6303235;22;45530;-77
2022/01/25 07:38:15;;;;;;;;;59.33;45.67;;;;;-147.59;100.00;57188.72;6303850;22;45423;-78
2022/01/25 07:40:41;;;;;;;;;59.67;48.00;;;;;-147.59;100.00;57188.72;6303210;22;45449;-77
2022/01/25 07:43:07;;;;;;;;;52.00;43.25;;;;;-147.59;100.00;57188.72;6302352;22;45318;-78
2022/01/25 07:45:35;;;;;;;;;59.50;43.75;;;;;-147.59;100.00;57188.72;6303992;22;45444;-77
2022/01/25 07:48:08;;;;;;;;;61.67;43.33;;;;;-147.59;100.00;57188.72;6303894;22;45277;-77
2022/01/25 07:50:34;;;;;;;;;56.67;44.33;;;;;-147.59;100.00;57188.72;6303828;22;45294;-78
2022/01/25 07:52:59;;;;;;;;;54.67;42.33;;;;;-147.59;100.00;57188.72;6304322;22;45266;-77
2022/01/25 07:55:25;;;;;;;;;59.67;44.67;;;;;-147.59;100.00;57188.72;6302266;22;45145;-78
2022/01/25 07:57:50;;;;;;;;;60.67;46.00;;;;;-147.59;100.00;57188.72;6302005;22;46887;-78
2022/01/25 08:00:16;;;;;;;;;64.75;47.50;;;;;-147.59;100.00;57188.72;6303776;22;46240;-77
2022/01/25 08:02:43;;;;;;;;;64.00;50.50;;;;;-147.59;100.00;57188.72;6301752;22;45260;-77
2022/01/25 08:05:16;;;;;;;;;61.00;47.00;;;;;-147.59;100.00;57188.72;6303769;22;45557;-86
2022/01/25 08:07:42;;;;;;;;;51.67;43.00;;;;;-147.59;100.00;57188.72;6302040;22;47866;-86
2022/01/25 08:10:09;;;;;;;;;62.67;44.67;;;;;-147.59;100.00;57188.72;6303057;22;45376;-85
2022/01/25 08:12:35;;;;;;;;;46.67;40.00;;;;;-147.59;100.00;57188.72;6303184;22;45558;-86
2022/01/25 08:15:03;;;;;;;;;47.00;41.67;;;;;-147.59;100.00;57188.72;6303178;22;45296;-86
2022/01/25 08:17:29;;;;;;;;;55.67;45.33;;;;;-147.59;100.00;57188.72;6303447;22;46816;-86
2022/01/25 08:19:54;;;;;;;;;56.00;45.33;;;;;-147.59;100.00;57188.72;6303231;22;45315;-87
2022/01/25 08:22:20;;;;;;;;;60.67;47.33;;;;;-147.59;100.00;57188.72;6304521;22;45174;-89
2022/01/25 08:24:45;;;;;;;;;54.00;43.67;;;;;-147.59;100.00;57188.72;6304272;22;45336;-86
2022/01/25 08:27:11;;;;;;;;;55.67;44.00;;;;;-147.59;100.00;57188.72;6304614;22;48025;-87
2022/01/25 08:29:38;;;;;;;;;51.67;36.67;;;;;-147.59;100.00;57188.72;6303716;22;45314;-86
2022/01/25 08:32:05;;;;;;;;;61.25;47.50;;;;;-147.59;100.00;57188.72;6304712;22;45410;-85
2022/01/25 08:34:30;;;;;;;;;53.33;42.33;;;;;-147.59;100.00;57188.72;6303477;22;45443;-84
2022/01/25 08:36:55;;;;;;;;;64.33;51.00;;;;;-147.59;100.00;57188.72;6306797;22;47039;-86
2022/01/25 08:39:23;;;;;;;;;67.67;47.33;;;;;-147.59;100.00;57188.72;6307949;22;45383;-91
2022/01/25 08:41:49;;;;;;;;;53.67;43.67;;;;;-147.59;100.00;57188.72;6305051;22;45290;-89
2022/01/25 08:44:14;;;;;;;;;56.00;43.67;;;;;-147.59;100.00;57188.72;6304287;22;45314;-88
2022/01/25 08:46:40;;;;;;;;;67.75;47.00;;;;;-147.59;100.00;57188.72;6293666;22;45965;-88
2022/01/25 08:49:05;;;;;;;;;60.33;45.67;;;;;-147.59;100.00;57188.72;6305975;22;45355;-89
2022/01/25 08:51:31;;;;;;;;;58.33;43.33;;;;;-147.59;100.00;57188.72;6304578;22;45285;-87
2022/01/25 08:53:56;;;;;;;;;58.00;47.00;;;;;-147.59;100.00;57188.72;6304470;22;45587;-85
2022/01/25 08:56:22;;;;;;;;;64.00;48.33;;;;;-147.59;100.00;57188.72;6299720;22;47072;-88
2022/01/25 08:58:47;;;;;;;;;64.75;48.25;;;;;-147.59;100.00;57188.72;6298817;22;45650;-88
2022/01/25 09:01:13;;;;;;;;;53.00;44.33;;;;;-147.59;100.00;57188.72;6300109;22;45340;-88
2022/01/25 09:03:38;;;;;;;;;55.67;45.67;;;;;-147.59;100.00;57188.72;6301048;22;45316;-88
2022/01/25 09:06:04;;;;;;;;;61.67;47.67;;;;;-147.59;100.00;57188.72;6300259;22;47119;-91
2022/01/25 09:08:30;;;;;;;;;61.33;45.00;;;;;-147.59;100.00;57188.72;6301707;22;45353;-91
2022/01/25 09:11:00;;;;;;;;;54.00;44.67;;;;;-147.59;100.00;57188.72;6298746;22;45477;-90
2022/01/25 09:13:25;;;;;;;;;56.00;44.33;;;;;-147.59;100.00;57188.72;6299311;22;45468;-86
2022/01/25 09:15:51;;;;;;;;;56.33;45.67;;;;;-147.59;100.00;57188.72;6299163;22;48037;-89
2022/01/25 09:18:17;;;;;;;;;58.67;42.33;;;;;-147.59;100.00;57188.72;6300626;22;45320;-90
2022/01/25 09:20:43;;;;;;;;;48.67;42.00;;;;;-147.59;100.00;57188.72;6300606;22;45336;-89
2022/01/25 09:23:08;;;;;;;;;38.33;35.67;;;;;-147.59;100.00;57188.72;6300297;22;45555;-90
2022/01/25 09:25:34;;;;;;;;;55.67;44.67;;;;;-147.59;100.00;57188.72;6303207;22;48324;-88
2022/01/25 09:28:00;;;;;;;;;53.33;41.00;;;;;-147.59;100.00;57188.72;6300981;22;45462;-91
2022/01/25 09:30:27;;;;;;;;;64.33;48.00;;;;;-147.59;100.00;57188.72;6299801;22;45317;-89
2022/01/25 09:32:52;;;;;;;;;52.67;44.33;;;;;-147.59;100.00;57188.72;6298002;22;45571;-87
2022/01/25 09:35:17;;;;;;;;;68.00;44.67;;;;;-147.59;100.00;57188.72;6297612;22;47349;-88
2022/01/25 09:37:43;;;;;;;;;47.00;40.33;;;;;-147.59;100.00;57188.72;6299718;22;45329;-92
2022/01/25 09:40:10;;;;;;;;;47.67;36.67;;;;;-147.59;100.00;57188.72;6297931;22;45450;-83
2022/01/25 09:42:37;;;;;;;;;61.67;44.67;;;;;-147.59;100.00;57188.72;6298922;22;45293;-91
2022/01/25 09:45:03;;;;;;;;;62.00;45.67;;;;;-147.59;100.00;57188.72;6301520;22;46500;-92
2022/01/25 09:47:28;;;;;;;;;59.33;44.33;;;;;-147.59;100.00;57188.72;6301802;22;45857;-91
2022/01/25 09:49:54;;;;;;;;;61.00;46.33;;;;;-147.59;100.00;57188.72;6303730;22;45405;-88
2022/01/25 09:52:19;;;;;;;;;52.00;43.67;;;;;-147.59;100.00;57188.72;6300902;22;45487;-89
2022/01/25 09:54:54;;;;;;;;;51.67;40.33;;;;;-147.59;100.00;57188.72;6302978;22;48310;-91
2022/01/25 09:57:20;;;;;;;;;64.00;46.67;;;;;-147.59;100.00;57188.72;6301051;22;45469;-88
2022/01/25 09:59:45;;;;;;;;;64.67;49.33;;;;;-147.59;100.00;57188.72;6300563;22;45371;-92
2022/01/25 10:02:11;;;;;;;;;63.33;51.33;;;;;-147.59;100.00;57188.72;6298971;22;45439;-89
2022/01/25 10:04:39;;;;;;;;;55.00;43.67;;;;;-147.59;100.00;57188.72;6301082;22;47198;-91
2022/01/25 10:07:05;;;;;;;;;66.00;44.67;;;;;-147.59;100.00;57188.72;6303029;22;45320;-89
2022/01/25 10:09:32;;;;;;;;;61.00;47.33;;;;;-147.59;100.00;57188.72;6301771;22;45366;-93
2022/01/25 10:12:17;;;;;;;;;53.00;41.67;;;;;-147.59;100.00;57188.72;6301019;22;45438;-85
2022/01/25 10:14:59;;;;;;;;;60.67;46.67;;;;;-147.59;100.00;57188.72;6298591;22;48307;-84
2022/01/25 10:17:32;;;;;;;;;62.67;44.33;;;;;-147.59;100.00;57188.72;6299553;22;45623;-91
2022/01/25 10:19:57;;;;;;;;;60.33;45.67;;;;;-147.59;100.00;57188.72;6302169;22;45392;-92
2022/01/25 10:22:23;;;;;;;;;64.00;45.00;;;;;-147.59;100.00;57188.72;6303030;22;45367;-91
2022/01/25 10:24:48;;;;;;;;;70.33;47.67;;;;;-147.59;100.00;57188.72;6301681;22;46439;-84
2022/01/25 10:27:22;;;;;;;;;61.33;46.00;;;;;-147.59;100.00;57188.72;6299831;22;45636;-93
2022/01/25 10:29:48;;;;;;;;;67.67;48.67;;;;;-147.59;100.00;57188.72;6298182;22;44838;-93
2022/01/25 10:32:15;;;;;;;;;66.00;48.33;;;;;-147.59;100.00;57188.72;6307357;22;45340;-91
2022/01/25 10:34:45;;;;;;;;;57.67;45.00;;;;;-147.59;100.00;57188.72;6305871;22;48121;-94
2022/01/25 10:37:50;;;;;;;;;52.33;44.67;;;;;-147.59;100.00;57188.72;6310065;22;45679;-95
2022/01/25 10:40:38;;;;;;;;;61.67;47.33;;;;;-147.59;100.00;57188.72;6303152;22;45345;-92
2022/01/25 10:43:06;;;;;;;;;53.67;31.00;;;;;-147.59;100.00;57188.72;6299507;22;45501;-88
2022/01/25 10:45:32;;;;;;;;;55.33;45.00;;;;;-147.59;100.00;57188.72;6298845;22;48265;-91
2022/01/25 10:47:57;;;;;;;;;62.67;48.67;;;;;-147.59;100.00;57188.72;6298447;22;45681;-87
2022/01/25 10:50:35;;;;;;;;;40.00;40.00;;;;;-147.59;100.00;57188.72;6299801;22;45358;-88
2022/01/25 10:53:15;;;;;;;;;59.00;45.00;;;;;-147.59;100.00;57188.72;6300143;22;45466;-90
2022/01/25 10:55:47;;;;;;;;;61.00;47.25;;;;;-147.59;100.00;57188.72;6299290;22;47213;-89
2022/01/25 10:58:13;;;;;;;;;63.67;47.33;;;;;-147.59;100.00;57188.72;6298722;22;46440;-89
2022/01/25 11:00:42;;;;;;;;;54.00;41.67;;;;;-147.59;100.00;57188.72;6300359;22;45391;-91
2022/01/25 11:03:08;;;;;;;;;65.67;47.33;;;;;-147.59;100.00;57188.72;6304662;22;45597;-90
2022/01/25 11:05:37;;;;;;;;;58.67;48.33;;;;;-147.59;100.00;57188.72;6301504;22;47189;-84
2022/01/25 11:08:15;;;;;;;;;67.00;50.00;;;;;-147.59;100.00;57188.72;6297937;22;45518;-83
2022/01/25 11:10:56;;;;;;;;;63.00;49.67;;;;;-147.59;100.00;57188.72;6298474;22;45354;-82
2022/01/25 11:13:35;;;;;;;;;61.33;46.33;;;;;-147.59;100.00;57188.72;6296562;22;45362;-87
2022/01/25 11:16:07;;;;;;;;;60.33;47.33;;;;;-147.59;100.00;57188.72;6297485;22;46646;-86
2022/01/25 11:18:34;;;;;;;;;70.67;52.33;;;;;-147.59;100.00;57188.72;6296834;22;45984;-87
2022/01/25 11:21:03;;;;;;;;;57.67;44.67;;;;;-147.59;100.00;57188.72;6297225;22;45812;-85
2022/01/25 11:23:34;;;;;;;;;64.67;49.33;;;;;-147.59;100.00;57188.72;6298105;22;45431;-87
2022/01/25 11:26:03;;;;;;;;;68.00;48.33;;;;;-147.59;100.00;57188.72;6293537;22;47512;-89
2022/01/25 11:28:34;;;;;;;;;50.00;45.00;;;;;-147.59;100.00;57188.72;6297058;22;45396;-87
2022/01/25 11:31:05;;;;;;;;;63.67;49.00;;;;;-147.59;100.00;57188.72;6297162;22;45366;-87
2022/01/25 11:33:33;;;;;;;;;56.50;43.75;;;;;-147.59;100.00;57188.72;6296564;22;45374;-86
2022/01/25 11:39:25;;;;;;;;;63.33;50.67;;;;;-147.59;100.00;57188.72;6262176;22;45560;-87
2022/01/25 11:42:00;;;;;;;;;50.67;40.33;;;;;-147.59;100.00;57188.72;6297075;22;45336;-86
2022/01/25 11:44:26;;;;;;;;;55.33;43.67;;;;;-147.59;100.00;57188.72;6296117;22;45775;-83
2022/01/25 11:47:13;;;;;;;;;62.00;44.67;;;;;-147.59;100.00;57188.72;6297638;22;46274;-84
2022/01/25 11:50:00;;;;;;;;;64.67;51.00;;;;;-147.59;100.00;57188.72;6299042;22;45398;-89
2022/01/25 11:52:29;;;;;;;;;61.67;46.00;;;;;-147.59;100.00;57188.72;6296559;22;45332;-88
2022/01/25 11:55:23;;;;;;;;;57.00;45.67;;;;;-147.59;100.00;57188.72;6295840;22;45638;-87
2022/01/25 11:57:52;;;;;;;;;60.00;44.33;;;;;-147.59;100.00;57188.72;6296502;22;47953;-87
2022/01/25 12:00:21;;;;;;;;;65.00;48.00;;;;;-147.59;100.00;57188.72;6295978;22;45820;-87
2022/01/25 12:02:52;;;;;;;;;70.75;50.25;;;;;-147.59;100.00;57188.72;6297376;22;45419;-86
2022/01/25 12:05:25;;;;;;;;;69.50;50.75;;;;;-147.59;100.00;57188.72;6298486;22;45529;-83
2022/01/25 12:08:06;;;;;;;;;70.25;52.50;;;;;-147.59;100.00;57188.72;6297907;22;47189;-85
2022/01/25 12:10:45;;;;;;;;;61.00;45.00;;;;;-147.59;100.00;57188.72;6293334;22;45690;-85
2022/01/25 12:13:18;;;;;;;;;70.67;54.33;;;;;-147.59;100.00;57188.72;6296652;22;45353;-86
2022/01/25 12:15:45;;;;;;;;;75.25;57.00;;;;;-147.59;100.00;57188.72;6297435;22;45694;-88
2022/01/25 12:18:49;;;;;;;;;68.00;51.25;;;;;-147.59;100.00;57188.72;6297761;22;47405;-86
2022/01/25 12:21:15;;;;;;;;;65.75;47.75;;;;;-147.59;100.00;57188.72;6297430;22;45360;-88
2022/01/25 12:23:45;;;;;;;;;67.33;51.33;;;;;-147.59;100.00;57188.72;6296279;22;45773;-86
2022/01/25 12:26:17;;;;;;;;;68.75;53.50;;;;;-147.59;100.00;57188.72;6301301;22;45352;-87
2022/01/25 12:28:46;;;;;;;;;71.67;54.00;;;;;-147.59;100.00;57188.72;6299235;22;47220;-92
2022/01/25 12:31:16;;;;;;;;;66.00;47.33;;;;;-147.59;100.00;57188.72;6300337;22;45448;-87
2022/01/25 12:33:43;;;;;;;;;62.00;47.50;;;;;-147.59;100.00;57188.72;6297505;22;45340;-86
2022/01/25 12:36:09;;;;;;;;;77.50;56.00;;;;;-147.59;100.00;57188.72;6297355;22;45826;-84
2022/01/25 12:38:37;;;;;;;;;65.25;50.25;;;;;-147.59;100.00;57188.72;6295634;22;47934;-86
2022/01/25 12:41:17;;;;;;;;;62.67;50.33;;;;;-147.59;100.00;57188.72;6296075;22;45356;-87
2022/01/25 12:43:51;;;;;;;;;68.33;52.67;;;;;-147.59;100.00;57188.72;6301403;22;45307;-84
2022/01/25 12:46:30;;;;;;;;;64.33;43.67;;;;;-147.59;100.00;57188.72;6297488;22;45341;-88
2022/01/25 12:48:59;;;;;;;;;73.50;58.25;;;;;-147.59;100.00;57188.72;6292001;22;47455;-86
2022/01/25 12:51:34;;;;;;;;;66.33;52.33;;;;;-147.59;100.00;57188.72;6298767;22;45356;-87